sensor_id;sensor_type;location;lat;lon;timestamp;pressure;altitude;pressure_sealevel;temperature;humidity
50774;BME280;36745;48.544;8.918;2024-02-21T00:00:42;98368.56;;;3.42;98.32
50774;BME280;36745;48.544;8.918;2024-02-21T00:04:02;98367.38;;;3.39;98.62
50774;BME280;36745;48.544;8.918;2024-02-21T00:07:22;98370.91;;;3.40;98.92
50774;BME280;36745;48.544;8.918;2024-02-21T00:10:41;98373.97;;;3.38;98.82
50774;BME280;36745;48.544;8.918;2024-02-21T00:14:01;98369.88;;;3.25;99.57
50774;BME280;36745;48.544;8.918;2024-02-21T00:17:21;98368.38;;;3.27;100.00
50774;BME280;36745;48.544;8.918;2024-02-21T00:20:41;98370.91;;;3.40;100.00
50774;BME280;36745;48.544;8.918;2024-02-21T00:24:00;98364.66;;;3.39;100.00
50774;BME280;36745;48.544;8.918;2024-02-21T00:27:20;98364.75;;;3.46;100.00
50774;BME280;36745;48.544;8.918;2024-02-21T00:30:40;98358.06;;;3.40;99.66
50774;BME280;36745;48.544;8.918;2024-02-21T00:34:00;98342.94;;;3.46;98.73
50774;BME280;36745;48.544;8.918;2024-02-21T00:37:20;98343.78;;;3.50;98.42
50774;BME280;36745;48.544;8.918;2024-02-21T00:40:39;98348.50;;;3.53;99.31
50774;BME280;36745;48.544;8.918;2024-02-21T00:43:59;98353.22;;;3.56;99.68
50774;BME280;36745;48.544;8.918;2024-02-21T00:47:19;98357.09;;;3.55;99.59
50774;BME280;36745;48.544;8.918;2024-02-21T00:50:38;98343.97;;;3.64;99.48
50774;BME280;36745;48.544;8.918;2024-02-21T00:53:58;98344.75;;;3.65;100.00
50774;BME280;36745;48.544;8.918;2024-02-21T00:57:18;98342.50;;;3.70;99.73
50774;BME280;36745;48.544;8.918;2024-02-21T01:00:37;98340.00;;;3.58;100.00
50774;BME280;36745;48.544;8.918;2024-02-21T01:03:57;98326.94;;;3.71;100.00
50774;BME280;36745;48.544;8.918;2024-02-21T01:07:17;98323.84;;;3.72;100.00
50774;BME280;36745;48.544;8.918;2024-02-21T01:10:37;98321.59;;;3.82;99.36
50774;BME280;36745;48.544;8.918;2024-02-21T01:13:56;98315.69;;;3.76;100.00
50774;BME280;36745;48.544;8.918;2024-02-21T01:17:17;98313.00;;;3.79;100.00
50774;BME280;36745;48.544;8.918;2024-02-21T01:20:37;98302.19;;;3.87;99.80
50774;BME280;36745;48.544;8.918;2024-02-21T01:23:57;98299.03;;;3.85;99.29
50774;BME280;36745;48.544;8.918;2024-02-21T01:27:16;98292.41;;;3.86;99.09
50774;BME280;36745;48.544;8.918;2024-02-21T01:30:36;98279.56;;;3.86;98.95
50774;BME280;36745;48.544;8.918;2024-02-21T01:33:56;98279.22;;;3.88;99.27
50774;BME280;36745;48.544;8.918;2024-02-21T01:37:16;98270.75;;;4.00;100.00
50774;BME280;36745;48.544;8.918;2024-02-21T01:40:36;98259.44;;;3.98;99.73
50774;BME280;36745;48.544;8.918;2024-02-21T01:43:57;98254.72;;;3.95;100.00
50774;BME280;36745;48.544;8.918;2024-02-21T01:47:17;98254.81;;;4.02;99.70
50774;BME280;36745;48.544;8.918;2024-02-21T01:50:37;98246.66;;;4.05;99.67
50774;BME280;36745;48.544;8.918;2024-02-21T01:53:57;98254.06;;;4.05;99.90
50774;BME280;36745;48.544;8.918;2024-02-21T01:57:17;98252.50;;;4.04;100.00
50774;BME280;36745;48.544;8.918;2024-02-21T02:00:38;98241.50;;;3.97;100.00
50774;BME280;36745;48.544;8.918;2024-02-21T02:03:59;98240.78;;;4.03;100.00
50774;BME280;36745;48.544;8.918;2024-02-21T02:07:19;98223.72;;;4.10;100.00
50774;BME280;36745;48.544;8.918;2024-02-21T02:10:40;98219.75;;;4.04;100.00
50774;BME280;36745;48.544;8.918;2024-02-21T02:13:59;98222.03;;;3.98;100.00
50774;BME280;36745;48.544;8.918;2024-02-21T02:17:19;98214.97;;;3.94;100.00
50774;BME280;36745;48.544;8.918;2024-02-21T02:20:40;98198.19;;;3.92;100.00
50774;BME280;36745;48.544;8.918;2024-02-21T02:23:59;98192.41;;;3.97;100.00
50774;BME280;36745;48.544;8.918;2024-02-21T02:27:19;98186.97;;;4.00;100.00
50774;BME280;36745;48.544;8.918;2024-02-21T02:30:39;98184.63;;;3.99;100.00
50774;BME280;36745;48.544;8.918;2024-02-21T02:33:59;98179.97;;;3.99;100.00
50774;BME280;36745;48.544;8.918;2024-02-21T02:37:19;98176.84;;;4.01;100.00
50774;BME280;36745;48.544;8.918;2024-02-21T02:40:39;98167.50;;;4.02;100.00
50774;BME280;36745;48.544;8.918;2024-02-21T02:44:00;98168.28;;;4.02;100.00
50774;BME280;36745;48.544;8.918;2024-02-21T02:47:19;98167.56;;;4.09;100.00
50774;BME280;36745;48.544;8.918;2024-02-21T02:50:39;98163.63;;;4.03;100.00
50774;BME280;36745;48.544;8.918;2024-02-21T02:53:59;98161.31;;;4.05;100.00
50774;BME280;36745;48.544;8.918;2024-02-21T02:57:19;98148.06;;;4.07;100.00
50774;BME280;36745;48.544;8.918;2024-02-21T03:00:39;98145.41;;;4.17;100.00
50774;BME280;36745;48.544;8.918;2024-02-21T03:03:58;98143.91;;;4.27;100.00
50774;BME280;36745;48.544;8.918;2024-02-21T03:07:20;98140.84;;;4.32;100.00
50774;BME280;36745;48.544;8.918;2024-02-21T03:10:40;98141.59;;;4.29;100.00
50774;BME280;36745;48.544;8.918;2024-02-21T03:14:00;98129.50;;;4.27;100.00
50774;BME280;36745;48.544;8.918;2024-02-21T03:17:21;98124.16;;;4.44;100.00
50774;BME280;36745;48.544;8.918;2024-02-21T03:20:40;98115.97;;;4.44;100.00
50774;BME280;36745;48.544;8.918;2024-02-21T03:24:00;98107.41;;;4.42;100.00
50774;BME280;36745;48.544;8.918;2024-02-21T03:27:20;98106.19;;;4.36;100.00
50774;BME280;36745;48.544;8.918;2024-02-21T03:30:40;98100.31;;;4.34;100.00
50774;BME280;36745;48.544;8.918;2024-02-21T03:34:00;98099.88;;;4.25;100.00
50774;BME280;36745;48.544;8.918;2024-02-21T03:37:20;98113.88;;;4.23;100.00
50774;BME280;36745;48.544;8.918;2024-02-21T03:40:39;98100.31;;;4.34;100.00
50774;BME280;36745;48.544;8.918;2024-02-21T03:43:59;98107.34;;;4.35;100.00
50774;BME280;36745;48.544;8.918;2024-02-21T03:47:19;98100.72;;;4.36;100.00
50774;BME280;36745;48.544;8.918;2024-02-21T03:50:39;98095.28;;;4.43;100.00
50774;BME280;36745;48.544;8.918;2024-02-21T03:53:58;98092.19;;;4.41;100.00
50774;BME280;36745;48.544;8.918;2024-02-21T03:57:18;98089.81;;;4.36;100.00
50774;BME280;36745;48.544;8.918;2024-02-21T04:00:38;98089.03;;;4.39;100.00
50774;BME280;36745;48.544;8.918;2024-02-21T04:03:58;98081.22;;;4.34;100.00
50774;BME280;36745;48.544;8.918;2024-02-21T04:07:18;98085.88;;;4.30;100.00
50774;BME280;36745;48.544;8.918;2024-02-21T04:10:38;98073.81;;;4.35;100.00
50774;BME280;36745;48.544;8.918;2024-02-21T04:13:58;98072.97;;;4.27;100.00
50774;BME280;36745;48.544;8.918;2024-02-21T04:17:17;98070.22;;;4.27;100.00
50774;BME280;36745;48.544;8.918;2024-02-21T04:20:37;98061.59;;;4.14;100.00
50774;BME280;36745;48.544;8.918;2024-02-21T04:23:57;98063.09;;;4.08;100.00
50774;BME280;36745;48.544;8.918;2024-02-21T04:27:17;98059.97;;;4.06;100.00
50774;BME280;36745;48.544;8.918;2024-02-21T04:30:37;98065.38;;;3.99;100.00
50774;BME280;36745;48.544;8.918;2024-02-21T04:33:57;98053.72;;;4.02;100.00
50774;BME280;36745;48.544;8.918;2024-02-21T04:37:17;98052.91;;;4.02;100.00
50774;BME280;36745;48.544;8.918;2024-02-21T04:40:36;98056.66;;;3.79;100.00
50774;BME280;36745;48.544;8.918;2024-02-21T04:43:56;98065.63;;;3.84;100.00
50774;BME280;36745;48.544;8.918;2024-02-21T04:47:16;98058.84;;;3.63;100.00
50774;BME280;36745;48.544;8.918;2024-02-21T04:50:36;98047.13;;;3.56;100.00
50774;BME280;36745;48.544;8.918;2024-02-21T04:53:56;98043.25;;;3.60;100.00
50774;BME280;36745;48.544;8.918;2024-02-21T04:57:16;98039.22;;;3.47;100.00
50774;BME280;36745;48.544;8.918;2024-02-21T05:00:36;98039.66;;;3.49;100.00
50774;BME280;36745;48.544;8.918;2024-02-21T05:03:56;98050.81;;;3.37;100.00
50774;BME280;36745;48.544;8.918;2024-02-21T05:07:16;98043.75;;;3.29;100.00
50774;BME280;36745;48.544;8.918;2024-02-21T05:10:36;98045.19;;;3.19;100.00
50774;BME280;36745;48.544;8.918;2024-02-21T05:13:55;98056.16;;;3.23;100.00
50774;BME280;36745;48.544;8.918;2024-02-21T05:17:15;98063.03;;;3.13;100.00
50774;BME280;36745;48.544;8.918;2024-02-21T05:20:35;98052.78;;;3.00;100.00
50774;BME280;36745;48.544;8.918;2024-02-21T05:23:55;98033.94;;;2.87;100.00
50774;BME280;36745;48.544;8.918;2024-02-21T05:27:15;98033.25;;;2.94;100.00
50774;BME280;36745;48.544;8.918;2024-02-21T05:30:34;98036.75;;;2.94;100.00
50774;BME280;36745;48.544;8.918;2024-02-21T05:33:54;98013.75;;;2.88;100.00
50774;BME280;36745;48.544;8.918;2024-02-21T05:37:14;98009.09;;;2.89;100.00
50774;BME280;36745;48.544;8.918;2024-02-21T05:40:34;98000.25;;;3.03;100.00
50774;BME280;36745;48.544;8.918;2024-02-21T05:43:54;98004.56;;;3.04;100.00
50774;BME280;36745;48.544;8.918;2024-02-21T05:47:14;97999.94;;;3.08;100.00
50774;BME280;36745;48.544;8.918;2024-02-21T05:50:34;98000.69;;;3.05;100.00
50774;BME280;36745;48.544;8.918;2024-02-21T05:53:54;98001.38;;;2.94;100.00
50774;BME280;36745;48.544;8.918;2024-02-21T05:57:14;97996.81;;;3.06;100.00
50774;BME280;36745;48.544;8.918;2024-02-21T06:00:33;97993.72;;;3.07;100.00
50774;BME280;36745;48.544;8.918;2024-02-21T06:03:53;97996.38;;;3.04;100.00
50774;BME280;36745;48.544;8.918;2024-02-21T06:07:14;97983.78;;;2.88;100.00
50774;BME280;36745;48.544;8.918;2024-02-21T06:10:33;97983.34;;;2.83;100.00
50774;BME280;36745;48.544;8.918;2024-02-21T06:13:53;97976.03;;;2.90;100.00
50774;BME280;36745;48.544;8.918;2024-02-21T06:17:14;97984.25;;;2.97;100.00
50774;BME280;36745;48.544;8.918;2024-02-21T06:20:33;97988.91;;;2.93;100.00
50774;BME280;36745;48.544;8.918;2024-02-21T06:23:55;97991.97;;;2.88;100.00
50774;BME280;36745;48.544;8.918;2024-02-21T06:27:15;97991.66;;;2.97;100.00
50774;BME280;36745;48.544;8.918;2024-02-21T06:30:36;97989.56;;;2.83;100.00
50774;BME280;36745;48.544;8.918;2024-02-21T06:33:55;97986.50;;;2.88;100.00
50774;BME280;36745;48.544;8.918;2024-02-21T06:37:15;97990.47;;;2.94;100.00
50774;BME280;36745;48.544;8.918;2024-02-21T06:40:35;97995.00;;;2.80;100.00
50774;BME280;36745;48.544;8.918;2024-02-21T06:43:58;98001.28;;;2.87;100.00
50774;BME280;36745;48.544;8.918;2024-02-21T06:47:18;97991.25;;;2.95;100.00
50774;BME280;36745;48.544;8.918;2024-02-21T06:50:37;97991.22;;;2.91;100.00
50774;BME280;36745;48.544;8.918;2024-02-21T06:53:57;97986.84;;;2.83;100.00
50774;BME280;36745;48.544;8.918;2024-02-21T06:57:17;97981.06;;;2.88;100.00
50774;BME280;36745;48.544;8.918;2024-02-21T07:00:38;97981.53;;;2.97;100.00
50774;BME280;36745;48.544;8.918;2024-02-21T07:03:58;97978.16;;;3.08;100.00
50774;BME280;36745;48.544;8.918;2024-02-21T07:07:17;97974.41;;;3.23;100.00
50774;BME280;36745;48.544;8.918;2024-02-21T07:10:37;97980.59;;;3.20;100.00
50774;BME280;36745;48.544;8.918;2024-02-21T07:13:57;97982.16;;;3.21;100.00
50774;BME280;36745;48.544;8.918;2024-02-21T07:17:17;97969.84;;;3.34;100.00
50774;BME280;36745;48.544;8.918;2024-02-21T07:20:36;97976.91;;;3.42;100.00
50774;BME280;36745;48.544;8.918;2024-02-21T07:23:57;97976.97;;;3.53;100.00
50774;BME280;36745;48.544;8.918;2024-02-21T07:27:16;97986.34;;;3.55;100.00
50774;BME280;36745;48.544;8.918;2024-02-21T07:30:36;97977.13;;;3.74;100.00
50774;BME280;36745;48.544;8.918;2024-02-21T07:33:56;97967.06;;;3.82;100.00
50774;BME280;36745;48.544;8.918;2024-02-21T07:37:15;97960.13;;;3.95;100.00
50774;BME280;36745;48.544;8.918;2024-02-21T07:40:35;97950.16;;;4.20;100.00
50774;BME280;36745;48.544;8.918;2024-02-21T07:43:55;97949.44;;;4.37;100.00
50774;BME280;36745;48.544;8.918;2024-02-21T07:47:15;97944.44;;;4.60;100.00
50774;BME280;36745;48.544;8.918;2024-02-21T07:50:35;97936.28;;;4.82;100.00
50774;BME280;36745;48.544;8.918;2024-02-21T07:53:54;97932.06;;;5.02;100.00
50774;BME280;36745;48.544;8.918;2024-02-21T07:57:15;97934.00;;;5.26;100.00
50774;BME280;36745;48.544;8.918;2024-02-21T08:00:35;97930.50;;;5.47;100.00
50774;BME280;36745;48.544;8.918;2024-02-21T08:03:55;97929.31;;;5.62;99.75
50774;BME280;36745;48.544;8.918;2024-02-21T08:07:14;97932.81;;;5.80;99.39
50774;BME280;36745;48.544;8.918;2024-02-21T08:10:34;97934.00;;;5.83;98.53
50774;BME280;36745;48.544;8.918;2024-02-21T08:13:54;97925.38;;;5.81;98.43
50774;BME280;36745;48.544;8.918;2024-02-21T08:17:14;97927.75;;;5.93;98.90
50774;BME280;36745;48.544;8.918;2024-02-21T08:20:34;97924.53;;;6.16;98.22
50774;BME280;36745;48.544;8.918;2024-02-21T08:23:55;97924.47;;;6.33;97.47
50774;BME280;36745;48.544;8.918;2024-02-21T08:27:14;97919.00;;;6.33;96.64
50774;BME280;36745;48.544;8.918;2024-02-21T08:30:34;97911.50;;;6.52;96.75
50774;BME280;36745;48.544;8.918;2024-02-21T08:33:54;97893.75;;;6.70;96.48
50774;BME280;36745;48.544;8.918;2024-02-21T08:37:14;97899.25;;;6.74;95.04
50774;BME280;36745;48.544;8.918;2024-02-21T08:40:33;97890.53;;;6.86;95.23
50774;BME280;36745;48.544;8.918;2024-02-21T08:43:54;97889.75;;;6.89;94.91
50774;BME280;36745;48.544;8.918;2024-02-21T08:47:14;97891.22;;;7.01;94.40
50774;BME280;36745;48.544;8.918;2024-02-21T08:50:34;97886.09;;;7.06;93.51
50774;BME280;36745;48.544;8.918;2024-02-21T08:53:56;97883.25;;;7.21;93.86
50774;BME280;36745;48.544;8.918;2024-02-21T08:57:15;97884.56;;;7.50;93.52
50774;BME280;36745;48.544;8.918;2024-02-21T09:00:35;97871.78;;;7.33;91.10
50774;BME280;36745;48.544;8.918;2024-02-21T09:03:55;97865.13;;;7.34;90.30
50774;BME280;36745;48.544;8.918;2024-02-21T09:07:16;97868.22;;;7.39;87.99
50774;BME280;36745;48.544;8.918;2024-02-21T09:10:36;97863.66;;;7.22;88.90
50774;BME280;36745;48.544;8.918;2024-02-21T09:13:55;97853.28;;;7.44;88.92
50774;BME280;36745;48.544;8.918;2024-02-21T09:17:15;97844.09;;;7.61;88.12
50774;BME280;36745;48.544;8.918;2024-02-21T09:20:36;97834.78;;;7.85;87.26
50774;BME280;36745;48.544;8.918;2024-02-21T09:23:56;97831.09;;;7.99;87.27
50774;BME280;36745;48.544;8.918;2024-02-21T09:27:16;97828.41;;;7.95;86.77
50774;BME280;36745;48.544;8.918;2024-02-21T09:30:36;97822.84;;;8.02;85.85
50774;BME280;36745;48.544;8.918;2024-02-21T09:33:57;97824.94;;;8.22;85.04
50774;BME280;36745;48.544;8.918;2024-02-21T09:37:17;97828.75;;;8.31;83.72
50774;BME280;36745;48.544;8.918;2024-02-21T09:40:38;97830.06;;;8.20;82.00
50774;BME280;36745;48.544;8.918;2024-02-21T09:43:58;97824.06;;;8.28;81.48
50774;BME280;36745;48.544;8.918;2024-02-21T09:47:22;97813.81;;;8.36;81.77
50774;BME280;36745;48.544;8.918;2024-02-21T09:50:43;97820.66;;;8.51;80.63
50774;BME280;36745;48.544;8.918;2024-02-21T09:54:04;97806.34;;;8.63;80.26
50774;BME280;36745;48.544;8.918;2024-02-21T09:57:24;97802.06;;;8.32;79.60
50774;BME280;36745;48.544;8.918;2024-02-21T10:00:44;97804.31;;;8.40;77.06
50774;BME280;36745;48.544;8.918;2024-02-21T10:04:04;97801.31;;;8.58;77.31
50774;BME280;36745;48.544;8.918;2024-02-21T10:07:24;97799.94;;;8.70;75.36
50774;BME280;36745;48.544;8.918;2024-02-21T10:10:45;97796.91;;;8.88;74.01
50774;BME280;36745;48.544;8.918;2024-02-21T10:14:06;97786.75;;;9.08;74.49
50774;BME280;36745;48.544;8.918;2024-02-21T10:17:26;97773.97;;;9.21;73.87
50774;BME280;36745;48.544;8.918;2024-02-21T10:20:46;97778.97;;;9.49;71.96
50774;BME280;36745;48.544;8.918;2024-02-21T10:24:06;97759.91;;;9.58;72.42
50774;BME280;36745;48.544;8.918;2024-02-21T10:27:26;97761.31;;;9.66;71.92
50774;BME280;36745;48.544;8.918;2024-02-21T10:30:50;97763.44;;;9.79;71.05
50774;BME280;36745;48.544;8.918;2024-02-21T10:34:16;97760.25;;;10.00;72.13
50774;BME280;36745;48.544;8.918;2024-02-21T10:37:37;97751.69;;;10.14;70.50
50774;BME280;36745;48.544;8.918;2024-02-21T10:40:56;97748.34;;;9.87;66.43
50774;BME280;36745;48.544;8.918;2024-02-21T10:44:19;97731.97;;;10.16;67.42
50774;BME280;36745;48.544;8.918;2024-02-21T10:47:39;97733.19;;;9.95;65.95
50774;BME280;36745;48.544;8.918;2024-02-21T10:51:17;97722.69;;;10.26;66.62
50774;BME280;36745;48.544;8.918;2024-02-21T10:54:56;97714.28;;;10.33;64.26
50774;BME280;36745;48.544;8.918;2024-02-21T10:58:18;97708.53;;;10.43;66.21
50774;BME280;36745;48.544;8.918;2024-02-21T11:01:38;97698.81;;;10.55;64.86
50774;BME280;36745;48.544;8.918;2024-02-21T11:04:58;97699.56;;;10.56;64.29
50774;BME280;36745;48.544;8.918;2024-02-21T11:08:19;97690.00;;;10.28;60.61
50774;BME280;36745;48.544;8.918;2024-02-21T11:11:40;97686.66;;;10.52;62.32
50774;BME280;36745;48.544;8.918;2024-02-21T11:15:06;97680.78;;;10.83;63.54
50774;BME280;36745;48.544;8.918;2024-02-21T11:18:26;97679.41;;;10.75;62.16
50774;BME280;36745;48.544;8.918;2024-02-21T11:21:46;97660.09;;;10.59;61.12
50774;BME280;36745;48.544;8.918;2024-02-21T11:25:07;97649.91;;;10.88;61.49
50774;BME280;36745;48.544;8.918;2024-02-21T11:28:33;97639.81;;;10.52;59.80
50774;BME280;36745;48.544;8.918;2024-02-21T11:31:53;97631.94;;;10.67;60.59
50774;BME280;36745;48.544;8.918;2024-02-21T11:35:19;97631.63;;;10.94;61.52
50774;BME280;36745;48.544;8.918;2024-02-21T11:38:39;97624.66;;;11.18;61.87
50774;BME280;36745;48.544;8.918;2024-02-21T11:42:06;97620.31;;;11.46;61.03
50774;BME280;36745;48.544;8.918;2024-02-21T11:45:29;97610.06;;;11.72;60.89
50774;BME280;36745;48.544;8.918;2024-02-21T11:48:49;97595.97;;;11.83;59.96
50774;BME280;36745;48.544;8.918;2024-02-21T11:52:11;97603.16;;;12.05;59.11
50774;BME280;36745;48.544;8.918;2024-02-21T11:55:31;97593.31;;;12.04;58.57
50774;BME280;36745;48.544;8.918;2024-02-21T11:58:51;97588.00;;;12.23;59.04
50774;BME280;36745;48.544;8.918;2024-02-21T12:02:11;97586.78;;;12.24;57.85
50774;BME280;36745;48.544;8.918;2024-02-21T12:05:31;97578.56;;;12.33;57.90
50774;BME280;36745;48.544;8.918;2024-02-21T12:08:51;97579.13;;;12.40;57.61
50774;BME280;36745;48.544;8.918;2024-02-21T12:12:12;97564.00;;;12.19;55.93
50774;BME280;36745;48.544;8.918;2024-02-21T12:15:32;97559.09;;;12.36;57.72
50774;BME280;36745;48.544;8.918;2024-02-21T12:18:53;97552.50;;;12.21;56.50
50774;BME280;36745;48.544;8.918;2024-02-21T12:22:18;97539.41;;;11.87;56.01
50774;BME280;36745;48.544;8.918;2024-02-21T12:25:38;97544.91;;;12.00;56.17
50774;BME280;36745;48.544;8.918;2024-02-21T12:28:58;97536.41;;;11.94;56.42
50774;BME280;36745;48.544;8.918;2024-02-21T12:32:18;97524.41;;;12.23;56.66
50774;BME280;36745;48.544;8.918;2024-02-21T12:35:38;97528.69;;;12.36;56.48
50774;BME280;36745;48.544;8.918;2024-02-21T12:38:58;97502.31;;;12.23;55.71
50774;BME280;36745;48.544;8.918;2024-02-21T12:42:18;97501.16;;;12.33;56.55
50774;BME280;36745;48.544;8.918;2024-02-21T12:45:38;97503.63;;;12.52;56.19
50774;BME280;36745;48.544;8.918;2024-02-21T12:48:58;97488.97;;;12.43;56.66
50774;BME280;36745;48.544;8.918;2024-02-21T12:52:19;97478.75;;;12.31;55.64
50774;BME280;36745;48.544;8.918;2024-02-21T12:55:39;97475.56;;;12.19;56.48
50774;BME280;36745;48.544;8.918;2024-02-21T12:58:59;97461.97;;;12.25;55.75
50774;BME280;36745;48.544;8.918;2024-02-21T13:02:19;97457.72;;;12.33;55.23
50774;BME280;36745;48.544;8.918;2024-02-21T13:05:39;97449.28;;;12.58;56.02
50774;BME280;36745;48.544;8.918;2024-02-21T13:08:59;97442.63;;;12.47;54.68
50774;BME280;36745;48.544;8.918;2024-02-21T13:12:22;97434.00;;;12.45;55.29
50774;BME280;36745;48.544;8.918;2024-02-21T13:15:42;97426.66;;;12.51;55.27
50774;BME280;36745;48.544;8.918;2024-02-21T13:19:02;97410.66;;;12.46;55.07
50774;BME280;36745;48.544;8.918;2024-02-21T13:22:22;97405.53;;;12.57;55.04
50774;BME280;36745;48.544;8.918;2024-02-21T13:25:45;97396.50;;;12.44;55.06
50774;BME280;36745;48.544;8.918;2024-02-21T13:29:05;97390.59;;;12.33;54.42
50774;BME280;36745;48.544;8.918;2024-02-21T13:32:24;97383.09;;;12.64;55.80
50774;BME280;36745;48.544;8.918;2024-02-21T13:35:44;97382.25;;;12.76;55.16
50774;BME280;36745;48.544;8.918;2024-02-21T13:39:04;97366.63;;;12.82;55.30
50774;BME280;36745;48.544;8.918;2024-02-21T13:42:24;97368.09;;;12.74;55.33
50774;BME280;36745;48.544;8.918;2024-02-21T13:45:56;97351.63;;;12.61;54.44
50774;BME280;36745;48.544;8.918;2024-02-21T13:49:16;97348.00;;;12.74;55.27
50774;BME280;36745;48.544;8.918;2024-02-21T13:52:37;97345.25;;;12.83;55.17
50774;BME280;36745;48.544;8.918;2024-02-21T13:55:56;97339.78;;;12.61;54.68
50774;BME280;36745;48.544;8.918;2024-02-21T13:59:16;97327.94;;;12.30;54.14
50774;BME280;36745;48.544;8.918;2024-02-21T14:02:37;97318.84;;;12.51;55.27
50774;BME280;36745;48.544;8.918;2024-02-21T14:05:56;97322.81;;;12.50;55.31
50774;BME280;36745;48.544;8.918;2024-02-21T14:09:16;97316.25;;;12.56;54.85
50774;BME280;36745;48.544;8.918;2024-02-21T14:12:36;97315.59;;;12.52;54.58
50774;BME280;36745;48.544;8.918;2024-02-21T14:15:57;97314.88;;;12.61;54.97
50774;BME280;36745;48.544;8.918;2024-02-21T14:19:16;97315.34;;;12.59;55.04
50774;BME280;36745;48.544;8.918;2024-02-21T14:22:38;97305.03;;;12.60;55.04
50774;BME280;36745;48.544;8.918;2024-02-21T14:25:58;97306.94;;;12.72;55.43
50774;BME280;36745;48.544;8.918;2024-02-21T14:29:17;97301.41;;;12.72;55.11
50774;BME280;36745;48.544;8.918;2024-02-21T14:32:38;97299.59;;;12.78;55.00
50774;BME280;36745;48.544;8.918;2024-02-21T14:36:02;97298.94;;;12.74;55.38
50774;BME280;36745;48.544;8.918;2024-02-21T14:39:22;97288.53;;;12.78;55.46
50774;BME280;36745;48.544;8.918;2024-02-21T14:42:42;97278.00;;;12.64;55.29
50774;BME280;36745;48.544;8.918;2024-02-21T14:46:02;97279.34;;;12.50;55.29
50774;BME280;36745;48.544;8.918;2024-02-21T14:49:23;97277.66;;;12.53;55.68
50774;BME280;36745;48.544;8.918;2024-02-21T14:52:44;97272.13;;;12.53;55.57
50774;BME280;36745;48.544;8.918;2024-02-21T14:56:04;97268.47;;;12.56;55.94
50774;BME280;36745;48.544;8.918;2024-02-21T14:59:26;97266.34;;;12.60;56.33
50774;BME280;36745;48.544;8.918;2024-02-21T15:02:46;97270.19;;;12.63;56.48
50774;BME280;36745;48.544;8.918;2024-02-21T15:06:05;97275.72;;;12.63;56.29
50774;BME280;36745;48.544;8.918;2024-02-21T15:09:25;97266.06;;;12.67;56.38
50774;BME280;36745;48.544;8.918;2024-02-21T15:12:46;97233.25;;;12.47;56.52
50774;BME280;36745;48.544;8.918;2024-02-21T15:16:06;97222.59;;;12.37;56.80
50774;BME280;36745;48.544;8.918;2024-02-21T15:19:25;97236.16;;;12.44;57.35
50774;BME280;36745;48.544;8.918;2024-02-21T15:22:45;97216.69;;;12.16;56.79
50774;BME280;36745;48.544;8.918;2024-02-21T15:26:05;97204.16;;;12.25;57.06
50774;BME280;36745;48.544;8.918;2024-02-21T15:29:25;97207.53;;;12.29;57.03
50774;BME280;36745;48.544;8.918;2024-02-21T15:32:45;97185.56;;;12.25;57.01
50774;BME280;36745;48.544;8.918;2024-02-21T15:36:05;97180.31;;;12.18;56.83
50774;BME280;36745;48.544;8.918;2024-02-21T15:39:24;97178.59;;;12.11;56.91
50774;BME280;36745;48.544;8.918;2024-02-21T15:42:46;97172.09;;;12.05;57.15
50774;BME280;36745;48.544;8.918;2024-02-21T15:46:05;97163.78;;;11.96;57.38
50774;BME280;36745;48.544;8.918;2024-02-21T15:49:25;97165.59;;;11.90;57.51
50774;BME280;36745;48.544;8.918;2024-02-21T15:52:45;97158.66;;;11.86;57.35
50774;BME280;36745;48.544;8.918;2024-02-21T15:56:05;97160.47;;;11.80;57.52
50774;BME280;36745;48.544;8.918;2024-02-21T15:59:25;97160.50;;;11.67;57.57
50774;BME280;36745;48.544;8.918;2024-02-21T16:02:45;97159.31;;;11.68;56.87
50774;BME280;36745;48.544;8.918;2024-02-21T16:06:04;97158.81;;;11.60;57.10
50774;BME280;36745;48.544;8.918;2024-02-21T16:09:24;97156.09;;;11.48;56.74
50774;BME280;36745;48.544;8.918;2024-02-21T16:12:44;97151.16;;;11.43;56.66
50774;BME280;36745;48.544;8.918;2024-02-21T16:16:04;97143.66;;;11.43;56.39
50774;BME280;36745;48.544;8.918;2024-02-21T16:19:23;97135.31;;;11.34;56.69
50774;BME280;36745;48.544;8.918;2024-02-21T16:22:43;97133.25;;;11.25;57.03
50774;BME280;36745;48.544;8.918;2024-02-21T16:26:04;97124.94;;;11.16;57.31
50774;BME280;36745;48.544;8.918;2024-02-21T16:29:24;97121.19;;;11.10;57.58
50774;BME280;36745;48.544;8.918;2024-02-21T16:32:44;97117.59;;;11.01;57.47
50774;BME280;36745;48.544;8.918;2024-02-21T16:36:04;97100.66;;;10.89;57.65
50774;BME280;36745;48.544;8.918;2024-02-21T16:39:26;97097.69;;;10.84;57.77
50774;BME280;36745;48.544;8.918;2024-02-21T16:42:46;97101.47;;;10.77;58.09
50774;BME280;36745;48.544;8.918;2024-02-21T16:46:09;97100.94;;;10.70;58.45
50774;BME280;36745;48.544;8.918;2024-02-21T16:49:29;97096.13;;;10.61;58.83
50774;BME280;36745;48.544;8.918;2024-02-21T16:52:49;97097.13;;;10.55;59.01
50774;BME280;36745;48.544;8.918;2024-02-21T16:56:09;97082.06;;;10.46;59.39
50774;BME280;36745;48.544;8.918;2024-02-21T16:59:29;97086.69;;;10.37;59.84
50774;BME280;36745;48.544;8.918;2024-02-21T17:02:49;97081.31;;;10.33;60.25
50774;BME280;36745;48.544;8.918;2024-02-21T17:06:09;97083.41;;;10.29;60.95
50774;BME280;36745;48.544;8.918;2024-02-21T17:09:29;97074.50;;;10.25;61.34
50774;BME280;36745;48.544;8.918;2024-02-21T17:12:50;97069.09;;;10.22;61.61
50774;BME280;36745;48.544;8.918;2024-02-21T17:16:10;97080.69;;;10.17;61.42
50774;BME280;36745;48.544;8.918;2024-02-21T17:19:30;97082.88;;;9.96;62.50
50774;BME280;36745;48.544;8.918;2024-02-21T17:22:50;97079.47;;;9.92;62.59
50774;BME280;36745;48.544;8.918;2024-02-21T17:26:10;97077.28;;;9.87;63.54
50774;BME280;36745;48.544;8.918;2024-02-21T17:29:30;97070.44;;;9.79;64.21
50774;BME280;36745;48.544;8.918;2024-02-21T17:32:50;97063.28;;;9.82;63.33
50774;BME280;36745;48.544;8.918;2024-02-21T17:36:11;97046.66;;;9.73;62.64
50774;BME280;36745;48.544;8.918;2024-02-21T17:39:31;97041.69;;;9.67;63.06
50774;BME280;36745;48.544;8.918;2024-02-21T17:42:50;97044.22;;;9.62;63.88